createdAt,value
2022-12-07T00:00:48.258Z,1005.5
2022-12-07T00:03:48.343Z,1005.4
2022-12-07T00:06:48.246Z,1005.3
2022-12-07T00:09:48.249Z,1005.3
2022-12-07T00:12:48.256Z,1005.4
2022-12-07T00:15:48.251Z,1005.2
2022-12-07T00:18:48.281Z,1005.2
2022-12-07T00:21:48.259Z,1005.2
2022-12-07T00:24:48.260Z,1005.2
2022-12-07T00:27:48.264Z,1005.1
2022-12-07T00:30:48.272Z,1005
2022-12-07T00:33:48.273Z,1005
2022-12-07T00:36:48.301Z,1005
2022-12-07T00:39:48.281Z,1005.1
2022-12-07T00:42:48.274Z,1005.1
2022-12-07T00:45:48.329Z,1005
2022-12-07T00:48:48.286Z,1005
2022-12-07T00:51:48.286Z,1004.9
2022-12-07T00:54:48.319Z,1005
2022-12-07T00:57:48.292Z,1004.9
2022-12-07T01:00:48.291Z,1004.9
2022-12-07T01:03:48.292Z,1004.9
2022-12-07T01:06:48.295Z,1004.8
2022-12-07T01:09:48.294Z,1004.8
2022-12-07T01:12:48.322Z,1004.8
2022-12-07T01:15:48.295Z,1004.7
2022-12-07T01:18:48.299Z,1004.9
2022-12-07T01:21:48.302Z,1004.8
2022-12-07T01:24:48.297Z,1004.7
2022-12-07T01:27:48.299Z,1004.6
2022-12-07T01:30:48.390Z,1004.6
2022-12-07T01:33:48.305Z,1004.5
2022-12-07T01:36:48.307Z,1004.5
2022-12-07T01:39:48.308Z,1004.4
2022-12-07T01:42:48.310Z,1004.5
2022-12-07T01:45:48.358Z,1004.4
2022-12-07T01:48:48.338Z,1004.4
2022-12-07T01:51:48.315Z,1004.4
2022-12-07T01:54:48.312Z,1004.3
2022-12-07T01:57:48.310Z,1004.4
2022-12-07T02:00:48.315Z,1004.3
2022-12-07T02:03:48.311Z,1004.3
2022-12-07T02:06:48.338Z,1004.3
2022-12-07T02:09:48.315Z,1004.2
2022-12-07T02:12:48.314Z,1004.2
2022-12-07T02:15:48.377Z,1004.2
2022-12-07T02:18:48.327Z,1004.2
2022-12-07T02:21:48.330Z,1004.1
2022-12-07T02:24:48.352Z,1004.1
2022-12-07T02:27:48.330Z,1004.1
2022-12-07T02:30:48.436Z,1004
2022-12-07T02:33:48.333Z,1004
2022-12-07T02:36:48.334Z,1004
2022-12-07T02:39:48.351Z,1004
2022-12-07T02:42:48.363Z,1003.9
2022-12-07T02:45:48.343Z,1003.9
2022-12-07T02:48:48.339Z,1003.9
2022-12-07T02:51:48.347Z,1003.9
2022-12-07T02:54:48.340Z,1003.9
2022-12-07T02:57:48.345Z,1003.7
2022-12-07T03:00:48.369Z,1003.7
2022-12-07T03:03:48.349Z,1003.8
2022-12-07T03:06:48.350Z,1003.8
2022-12-07T03:09:48.358Z,1003.8
2022-12-07T03:12:48.361Z,1003.7
2022-12-07T03:15:48.426Z,1003.7
2022-12-07T03:18:48.384Z,1003.7
2022-12-07T03:21:48.365Z,1003.6
2022-12-07T03:24:48.372Z,1003.6
2022-12-07T03:27:48.378Z,1003.6
2022-12-07T03:30:48.474Z,1003.4
2022-12-07T03:33:48.380Z,1003.5
2022-12-07T03:36:48.409Z,1003.4
2022-12-07T03:39:48.382Z,1003.5
2022-12-07T03:42:48.520Z,1003.3
2022-12-07T03:45:48.394Z,1003.3
2022-12-07T03:48:48.398Z,1003.4
2022-12-07T03:51:48.391Z,1003.3
2022-12-07T03:54:48.428Z,1003.3
2022-12-07T03:57:48.401Z,1003.5
2022-12-07T04:00:48.407Z,1003.5
2022-12-07T04:03:48.422Z,1003.5
2022-12-07T04:06:48.412Z,1003.5
2022-12-07T04:09:48.409Z,1003.6
2022-12-07T04:12:48.442Z,1003.6
2022-12-07T04:15:48.469Z,1003.6
2022-12-07T04:18:48.420Z,1003.6
2022-12-07T04:21:48.430Z,1003.5
2022-12-07T04:24:48.435Z,1003.5
2022-12-07T04:27:48.434Z,1003.5
2022-12-07T04:30:48.466Z,1003.5
2022-12-07T04:33:48.439Z,1003.4
2022-12-07T04:36:48.443Z,1003.5
2022-12-07T04:39:48.441Z,1003.5
2022-12-07T04:42:48.448Z,1003.4
2022-12-07T04:45:48.448Z,1003.4
2022-12-07T04:48:48.480Z,1003.4
2022-12-07T04:51:48.455Z,1003.4
2022-12-07T04:54:48.466Z,1003.5
2022-12-07T04:57:48.465Z,1003.4
2022-12-07T05:00:48.485Z,1003.4
2022-12-07T05:03:48.471Z,1003.4
2022-12-07T05:06:48.503Z,1003.4
2022-12-07T05:09:48.482Z,1003.4
2022-12-07T05:12:48.487Z,1003.4
2022-12-07T05:15:48.496Z,1003.4
2022-12-07T05:18:48.492Z,1003.4
2022-12-07T05:21:48.509Z,1003.5
2022-12-07T05:24:48.529Z,1003.5
2022-12-07T05:27:48.506Z,1003.6
2022-12-07T05:30:48.520Z,1003.5
2022-12-07T05:33:48.515Z,1003.5
2022-12-07T05:36:48.523Z,1003.5
2022-12-07T05:39:48.529Z,1003.5
2022-12-07T05:42:48.561Z,1003.5
2022-12-07T05:45:48.572Z,1003.4
2022-12-07T05:48:48.547Z,1003.4
2022-12-07T05:51:48.550Z,1003.4
2022-12-07T05:54:48.558Z,1003.4
2022-12-07T05:57:48.564Z,1003.4
2022-12-07T06:00:51.197Z,1003.3
2022-12-07T06:03:48.574Z,1003.4
2022-12-07T06:06:48.580Z,1003.3
2022-12-07T06:09:48.583Z,1003.4
2022-12-07T06:12:48.591Z,1003.3
2022-12-07T06:15:48.597Z,1003.3
2022-12-07T06:18:48.619Z,1003.3
2022-12-07T06:21:48.604Z,1003.3
2022-12-07T06:24:48.610Z,1003.5
2022-12-07T06:27:48.623Z,1003.4
2022-12-07T06:30:48.627Z,1003.5
2022-12-07T06:33:48.633Z,1003.4
2022-12-07T06:36:48.664Z,1003.5
2022-12-07T06:39:48.646Z,1003.5
2022-12-07T06:42:48.653Z,1003.5
2022-12-07T06:45:48.755Z,1003.6
2022-12-07T06:48:48.665Z,1003.6
2022-12-07T06:51:48.665Z,1003.5
2022-12-07T06:54:48.696Z,1003.6
2022-12-07T06:57:48.684Z,1003.6
2022-12-07T07:00:48.778Z,1003.6
2022-12-07T07:03:48.698Z,1003.6
2022-12-07T07:06:48.704Z,1003.5
2022-12-07T07:09:48.720Z,1003.6
2022-12-07T07:12:50.855Z,1003.6
2022-12-07T07:15:48.731Z,1003.6
2022-12-07T07:18:48.732Z,1003.7
2022-12-07T07:21:48.739Z,1003.6
2022-12-07T07:24:48.745Z,1003.7
2022-12-07T07:27:48.753Z,1003.7
2022-12-07T07:30:48.814Z,1003.7
2022-12-07T07:33:48.769Z,1003.7
2022-12-07T07:36:48.772Z,1003.7
2022-12-07T07:39:48.777Z,1003.7
2022-12-07T07:42:48.785Z,1003.8
2022-12-07T07:45:48.813Z,1003.8
2022-12-07T07:48:48.825Z,1003.7
2022-12-07T07:51:48.806Z,1003.8
2022-12-07T07:54:48.812Z,1003.8
2022-12-07T07:57:54.386Z,1003.8
2022-12-07T08:00:48.839Z,1003.8
2022-12-07T08:03:48.832Z,1003.8
2022-12-07T08:06:48.859Z,1003.7
2022-12-07T08:09:48.845Z,1003.8
2022-12-07T08:12:48.854Z,1003.8
2022-12-07T08:15:48.906Z,1003.8
2022-12-07T08:18:48.868Z,1003.8
2022-12-07T08:21:48.882Z,1003.7
2022-12-07T08:24:48.911Z,1003.7
2022-12-07T08:27:48.892Z,1003.8
2022-12-07T08:30:48.941Z,1003.8
2022-12-07T08:33:48.911Z,1003.9
2022-12-07T08:36:48.930Z,1003.9
2022-12-07T08:39:48.930Z,1003.9
2022-12-07T08:42:48.958Z,1003.8
2022-12-07T08:45:48.944Z,1003.9
2022-12-07T08:48:48.956Z,1003.9
2022-12-07T08:51:48.963Z,1003.9
2022-12-07T08:54:48.977Z,1003.9
2022-12-07T08:57:48.980Z,1003.9
2022-12-07T09:00:49.138Z,1003.9
2022-12-07T09:03:48.995Z,1004
2022-12-07T09:06:49.212Z,1004
2022-12-07T09:09:49.012Z,1004
2022-12-07T09:12:49.025Z,1004
2022-12-07T09:15:49.095Z,1004
2022-12-07T09:18:49.069Z,1004
2022-12-07T09:21:49.040Z,1004.1
2022-12-07T09:24:49.052Z,1004
2022-12-07T09:27:49.056Z,1004
2022-12-07T09:31:21.323Z,1003.9
2022-12-07T09:33:49.118Z,1003.9
2022-12-07T09:36:49.101Z,1003.9
2022-12-07T09:39:50.422Z,1003.8
2022-12-07T09:42:49.148Z,1003.9
2022-12-07T09:45:49.101Z,1003.9
2022-12-07T09:48:49.106Z,1003.9
2022-12-07T09:51:49.115Z,1004
2022-12-07T09:54:49.143Z,1004
2022-12-07T09:57:49.121Z,1004
2022-12-07T10:00:49.130Z,1003.9
2022-12-07T10:03:49.138Z,1004
2022-12-07T10:06:49.138Z,1003.9
2022-12-07T10:09:49.148Z,1003.9
2022-12-07T10:12:49.176Z,1003.9
2022-12-07T10:15:49.194Z,1003.8
2022-12-07T10:18:49.163Z,1003.8
2022-12-07T10:21:49.168Z,1003.8
2022-12-07T10:24:49.166Z,1003.9
2022-12-07T10:27:49.171Z,1003.9
2022-12-07T10:30:49.213Z,1003.9
2022-12-07T10:33:49.178Z,1003.8
2022-12-07T10:36:49.185Z,1003.8
2022-12-07T10:39:49.182Z,1003.7
2022-12-07T10:42:49.184Z,1003.6
2022-12-07T10:46:03.176Z,1003.7
2022-12-07T10:48:49.219Z,1003.7
2022-12-07T10:51:49.194Z,1003.8
2022-12-07T10:54:49.201Z,1003.7
2022-12-07T10:57:49.200Z,1003.7
2022-12-07T11:00:49.235Z,1003.7
2022-12-07T11:03:49.207Z,1003.7
2022-12-07T11:06:49.234Z,1003.7
2022-12-07T11:12:49.214Z,1003.7
2022-12-07T11:15:49.270Z,1003.7
2022-12-07T11:18:49.227Z,1003.6
2022-12-07T11:21:49.233Z,1003.6
2022-12-07T11:24:49.274Z,1003.6
2022-12-07T11:27:49.255Z,1003.6
2022-12-07T11:30:49.264Z,1003.6
2022-12-07T11:33:49.268Z,1003.6
2022-12-07T11:36:49.281Z,1003.6
2022-12-07T11:39:49.284Z,1003.6
2022-12-07T11:42:49.318Z,1003.6
2022-12-07T11:45:49.318Z,1003.5
2022-12-07T11:48:49.311Z,1003.4
2022-12-07T11:51:49.314Z,1003.4
2022-12-07T11:54:49.326Z,1003.4
2022-12-07T11:57:49.332Z,1003.2
2022-12-07T12:00:49.371Z,1003.3
2022-12-07T12:03:52.908Z,1003.3
2022-12-07T12:06:49.456Z,1003.2
2022-12-07T12:09:50.525Z,1003.3
2022-12-07T12:15:49.370Z,1003.3
2022-12-07T12:18:49.404Z,1003.3
2022-12-07T12:21:51.108Z,1003.2
2022-12-07T12:24:49.391Z,1003.3
2022-12-07T12:27:49.395Z,1003.2
2022-12-07T12:30:49.401Z,1003.2
2022-12-07T12:33:49.407Z,1003.1
2022-12-07T12:36:49.505Z,1003.1
2022-12-07T12:39:49.414Z,1003.1
2022-12-07T12:42:49.424Z,1003.1
2022-12-07T12:45:49.483Z,1003
2022-12-07T12:48:49.436Z,1003
2022-12-07T12:51:49.469Z,1002.9
2022-12-07T12:54:49.470Z,1002.9
2022-12-07T12:57:54.521Z,1003
2022-12-07T13:00:49.464Z,1002.9
2022-12-07T13:03:49.464Z,1002.9
2022-12-07T13:06:49.469Z,1003
2022-12-07T13:09:49.473Z,1002.9
2022-12-07T13:12:49.506Z,1002.9
2022-12-07T13:15:49.485Z,1002.8
2022-12-07T13:18:49.487Z,1002.9
2022-12-07T13:21:49.494Z,1002.9
2022-12-07T13:24:49.499Z,1002.9
2022-12-07T13:27:49.500Z,1002.9
2022-12-07T13:30:49.568Z,1002.8
2022-12-07T13:33:49.510Z,1002.8
2022-12-07T13:36:49.516Z,1002.8
2022-12-07T13:39:49.522Z,1002.9
2022-12-07T13:42:49.526Z,1002.9
2022-12-07T13:45:49.858Z,1002.9
2022-12-07T13:48:49.581Z,1002.9
2022-12-07T13:51:49.537Z,1002.9
2022-12-07T13:54:49.549Z,1003
2022-12-07T13:57:49.553Z,1002.9
2022-12-07T14:00:49.668Z,1002.9
2022-12-07T14:03:49.558Z,1002.9
2022-12-07T14:06:49.585Z,1002.9
2022-12-07T14:09:49.564Z,1002.9
2022-12-07T14:12:49.566Z,1002.9
2022-12-07T14:15:49.574Z,1002.9
2022-12-07T14:18:49.579Z,1002.8
2022-12-07T14:21:49.577Z,1002.8
2022-12-07T14:24:49.616Z,1002.8
2022-12-07T14:27:49.593Z,1002.8
2022-12-07T14:30:49.654Z,1002.9
2022-12-07T14:33:49.685Z,1003
2022-12-07T14:36:49.603Z,1003
2022-12-07T14:39:49.603Z,1003.1
2022-12-07T14:42:49.641Z,1003
2022-12-07T14:45:49.713Z,1003
2022-12-07T14:54:49.634Z,1003
2022-12-07T14:57:49.639Z,1003
2022-12-07T15:00:49.668Z,1003.1
2022-12-07T15:03:49.687Z,1003.1
2022-12-07T15:06:49.647Z,1003
2022-12-07T15:09:49.648Z,1003.1
2022-12-07T15:12:49.656Z,1003.1
2022-12-07T15:15:49.746Z,1003.1
2022-12-07T15:19:19.093Z,1003.1
2022-12-07T15:21:49.667Z,1003.1
2022-12-07T15:24:49.676Z,1003.1
2022-12-07T15:27:49.678Z,1003.2
2022-12-07T15:30:49.696Z,1003.2
2022-12-07T15:33:49.692Z,1003.2
2022-12-07T15:36:49.754Z,1003.2
2022-12-07T15:39:49.697Z,1003.3
2022-12-07T15:42:49.709Z,1003.3
2022-12-07T15:45:49.708Z,1003.2
2022-12-07T15:48:49.720Z,1003.2
2022-12-07T15:51:49.721Z,1003.2
2022-12-07T15:54:49.755Z,1003.2
2022-12-07T15:57:49.733Z,1003.2
2022-12-07T16:00:49.737Z,1003.1
2022-12-07T16:03:49.741Z,1003.1
2022-12-07T16:06:49.756Z,1003
2022-12-07T16:09:49.753Z,1003
2022-12-07T16:12:49.786Z,1003
2022-12-07T16:15:49.775Z,1003.2
2022-12-07T16:18:49.768Z,1003.2
2022-12-07T16:21:49.767Z,1003.1
2022-12-07T16:24:49.777Z,1003.1
2022-12-07T16:27:49.777Z,1003.1
2022-12-07T16:30:49.818Z,1003.1
2022-12-07T16:33:49.780Z,1003
2022-12-07T16:37:05.882Z,1003
2022-12-07T16:39:49.789Z,1003
2022-12-07T16:42:49.801Z,1002.9
2022-12-07T16:45:49.808Z,1002.9
2022-12-07T16:48:49.989Z,1002.9
2022-12-07T16:51:58.682Z,1003
2022-12-07T16:54:49.978Z,1002.9
2022-12-07T16:57:49.821Z,1002.9
2022-12-07T17:00:49.919Z,1003
2022-12-07T17:03:49.919Z,1002.9
2022-12-07T17:06:49.861Z,1002.9
2022-12-07T17:09:49.837Z,1003
2022-12-07T17:12:49.851Z,1003
2022-12-07T17:15:49.961Z,1002.9
2022-12-07T17:18:49.856Z,1002.9
2022-12-07T17:21:49.858Z,1002.9
2022-12-07T17:24:49.938Z,1002.9
2022-12-07T17:27:49.863Z,1002.9
2022-12-07T17:30:49.877Z,1002.8
2022-12-07T17:33:49.886Z,1002.8
2022-12-07T17:36:49.895Z,1002.8
2022-12-07T17:39:49.897Z,1002.8
2022-12-07T17:42:50.004Z,1002.7
2022-12-07T17:45:49.967Z,1002.7
2022-12-07T17:48:49.915Z,1002.7
2022-12-07T17:51:49.915Z,1002.7
2022-12-07T17:54:49.916Z,1002.6
2022-12-07T17:57:49.919Z,1002.6
2022-12-07T18:00:50.064Z,1002.6
2022-12-07T18:03:49.974Z,1002.6
2022-12-07T18:06:52.217Z,1002.6
2022-12-07T18:09:49.934Z,1002.6
2022-12-07T18:12:52.215Z,1002.7
2022-12-07T18:15:49.940Z,1002.6
2022-12-07T18:18:52.655Z,1002.7
2022-12-07T18:21:49.944Z,1002.6
2022-12-07T18:24:49.953Z,1002.5
2022-12-07T18:27:49.958Z,1002.5
2022-12-07T18:31:14.073Z,1002.5
2022-12-07T18:33:49.967Z,1002.5
2022-12-07T18:36:49.996Z,1002.6
2022-12-07T18:39:49.978Z,1002.5
2022-12-07T18:42:49.980Z,1002.5
2022-12-07T18:45:54.403Z,1002.4
2022-12-07T18:48:49.985Z,1002.5
2022-12-07T18:51:50.000Z,1002.5
2022-12-07T18:54:50.029Z,1002.5
2022-12-07T18:57:50.018Z,1002.5
2022-12-07T19:00:50.081Z,1002.6
2022-12-07T19:03:50.021Z,1002.5
2022-12-07T19:06:50.037Z,1002.5
2022-12-07T19:09:50.040Z,1002.5
2022-12-07T19:12:50.148Z,1002.5
2022-12-07T19:15:50.037Z,1002.6
2022-12-07T19:18:51.472Z,1002.6
2022-12-07T19:21:50.063Z,1002.6
2022-12-07T19:24:50.062Z,1002.5
2022-12-07T19:27:50.061Z,1002.5
2022-12-07T19:30:50.082Z,1002.6
2022-12-07T19:33:50.066Z,1002.5
2022-12-07T19:36:50.072Z,1002.4
2022-12-07T19:39:50.078Z,1002.4
2022-12-07T19:42:50.077Z,1002.3
2022-12-07T19:45:50.134Z,1002.3
2022-12-07T19:48:50.206Z,1002.3
2022-12-07T19:51:50.088Z,1002.2
2022-12-07T19:54:50.093Z,1002.2
2022-12-07T19:57:50.107Z,1002.1
2022-12-07T20:00:50.132Z,1002.1
2022-12-07T20:03:50.110Z,1002.2
2022-12-07T20:06:50.145Z,1002.2
2022-12-07T20:09:50.116Z,1002.2
2022-12-07T20:12:50.118Z,1002.1
2022-12-07T20:15:50.124Z,1002.1
2022-12-07T20:18:55.888Z,1002.1
2022-12-07T20:21:50.132Z,1002
2022-12-07T20:24:50.168Z,1001.9
2022-12-07T20:27:50.136Z,1001.9
2022-12-07T20:30:50.178Z,1002
2022-12-07T20:33:50.137Z,1001.9
2022-12-07T20:36:50.140Z,1001.9
2022-12-07T20:39:50.150Z,1001.8
2022-12-07T20:42:50.183Z,1001.8
2022-12-07T20:45:50.214Z,1001.7
2022-12-07T20:48:50.160Z,1001.7
2022-12-07T20:51:50.167Z,1001.6
2022-12-07T20:54:50.173Z,1001.5
2022-12-07T20:57:50.174Z,1001.5
2022-12-07T21:00:50.209Z,1001.6
2022-12-07T21:03:50.191Z,1001.6
2022-12-07T21:06:50.190Z,1001.7
2022-12-07T21:09:50.193Z,1001.7
2022-12-07T21:12:55.456Z,1001.7
2022-12-07T21:15:50.235Z,1001.7
2022-12-07T21:18:50.239Z,1001.7
2022-12-07T21:21:50.207Z,1001.7
2022-12-07T21:24:50.215Z,1001.5
2022-12-07T21:27:50.217Z,1001.5
2022-12-07T21:31:12.420Z,1001.4
2022-12-07T21:33:50.226Z,1001.4
2022-12-07T21:36:50.251Z,1001.4
2022-12-07T21:39:50.238Z,1001.5
2022-12-07T21:42:50.238Z,1001.5
2022-12-07T21:45:50.247Z,1001.5
2022-12-07T21:48:50.250Z,1001.4
2022-12-07T21:51:50.253Z,1001.4
2022-12-07T21:54:50.285Z,1001.3
2022-12-07T21:57:50.262Z,1001.3
2022-12-07T22:00:50.273Z,1001.4
2022-12-07T22:03:50.275Z,1001.3
2022-12-07T22:06:50.280Z,1001.3
2022-12-07T22:09:50.288Z,1001.3
2022-12-07T22:12:50.315Z,1001.3
2022-12-07T22:15:50.352Z,1001.3
2022-12-07T22:18:50.297Z,1001.2
2022-12-07T22:21:50.300Z,1001.2
2022-12-07T22:24:50.302Z,1001.2
2022-12-07T22:27:50.306Z,1001.2
2022-12-07T22:30:50.394Z,1001.1
2022-12-07T22:33:50.313Z,1001
2022-12-07T22:36:50.316Z,1001
2022-12-07T22:39:50.321Z,1001.1
2022-12-07T22:42:50.329Z,1000.9
2022-12-07T22:45:50.336Z,1000.9
2022-12-07T22:48:50.363Z,1000.8
2022-12-07T22:51:50.349Z,1000.8
2022-12-07T22:54:50.345Z,1000.9
2022-12-07T22:57:50.350Z,1000.8
2022-12-07T23:00:50.365Z,1000.9
2022-12-07T23:03:50.425Z,1000.9
2022-12-07T23:06:50.415Z,1000.8
2022-12-07T23:09:50.368Z,1000.8
2022-12-07T23:12:50.370Z,1000.8
2022-12-07T23:15:50.444Z,1000.8
2022-12-07T23:18:50.382Z,1000.7
2022-12-07T23:21:50.391Z,1000.6
2022-12-07T23:24:50.417Z,1000.6
2022-12-07T23:27:50.397Z,1000.5
2022-12-07T23:30:50.400Z,1000.5
2022-12-07T23:33:50.401Z,1000.5
2022-12-07T23:36:50.406Z,1000.4
2022-12-07T23:39:50.411Z,1000.4
2022-12-07T23:42:50.442Z,1000.4
2022-12-07T23:45:50.417Z,1000.3
2022-12-07T23:48:50.424Z,1000.2
2022-12-07T23:51:50.425Z,1000.1
2022-12-07T23:54:50.433Z,1000.1
2022-12-07T23:57:50.437Z,1000
